createdAt,value
2019-04-26T00:00:51.189Z,17.49
2019-04-26T00:03:31.771Z,17.43
2019-04-26T00:06:05.847Z,17.42
2019-04-26T00:08:39.072Z,17.38
2019-04-26T00:11:29.093Z,17.39
2019-04-26T00:14:12.365Z,17.41
2019-04-26T00:16:54.971Z,17.40
2019-04-26T00:19:27.199Z,17.37
2019-04-26T00:21:59.444Z,17.36
2019-04-26T00:24:32.100Z,17.38
2019-04-26T00:27:04.124Z,17.41
2019-04-26T00:29:36.066Z,17.40
2019-04-26T00:32:08.168Z,17.40
2019-04-26T00:34:40.204Z,17.41
2019-04-26T00:37:13.157Z,17.44
2019-04-26T00:39:46.173Z,17.44
2019-04-26T00:42:18.619Z,17.44
2019-04-26T00:44:51.321Z,17.45
2019-04-26T00:47:26.058Z,17.43
2019-04-26T00:50:00.042Z,17.43
2019-04-26T00:52:33.079Z,17.44
2019-04-26T00:55:06.638Z,17.44
2019-04-26T00:57:39.017Z,17.46
2019-04-26T01:00:13.023Z,17.46
2019-04-26T01:02:47.341Z,17.46
2019-04-26T01:05:19.297Z,17.45
2019-04-26T01:07:52.897Z,17.46
2019-04-26T01:10:25.802Z,17.47
2019-04-26T01:12:57.917Z,17.45
2019-04-26T01:15:29.860Z,17.43
2019-04-26T01:18:01.823Z,17.42
2019-04-26T01:20:36.325Z,17.42
2019-04-26T01:23:13.186Z,17.41
2019-04-26T01:26:07.533Z,17.39
2019-04-26T01:28:46.745Z,17.39
2019-04-26T01:31:19.957Z,17.39
2019-04-26T01:33:52.620Z,17.38
2019-04-26T01:36:28.496Z,17.38
2019-04-26T01:39:09.601Z,17.39
2019-04-26T01:41:43.292Z,17.38
2019-04-26T01:44:17.285Z,17.39
2019-04-26T01:46:50.688Z,17.37
2019-04-26T01:49:24.263Z,17.36
2019-04-26T01:52:06.344Z,17.36
2019-04-26T01:54:42.986Z,17.34
2019-04-26T01:57:16.461Z,17.33
2019-04-26T01:59:55.008Z,17.34
2019-04-26T02:02:34.823Z,17.32
2019-04-26T02:05:12.108Z,17.31
2019-04-26T02:07:44.441Z,17.31
2019-04-26T02:10:20.581Z,17.28
2019-04-26T02:12:54.745Z,17.29
2019-04-26T02:15:31.281Z,17.29
2019-04-26T02:18:04.277Z,17.30
2019-04-26T02:20:54.713Z,17.28
2019-04-26T02:23:44.202Z,17.27
2019-04-26T02:26:36.813Z,17.27
2019-04-26T02:29:26.604Z,17.26
2019-04-26T02:32:03.742Z,17.23
2019-04-26T02:34:38.304Z,17.23
2019-04-26T02:37:13.847Z,17.25
2019-04-26T02:40:06.940Z,17.26
2019-04-26T02:42:42.979Z,17.27
2019-04-26T02:45:58.246Z,17.26
2019-04-26T02:48:45.123Z,17.24
2019-04-26T02:51:29.129Z,17.21
2019-04-26T02:54:22.616Z,17.21
2019-04-26T02:56:59.082Z,17.21
2019-04-26T02:59:38.174Z,17.21
2019-04-26T03:02:14.445Z,17.22
2019-04-26T03:04:50.888Z,17.22
2019-04-26T03:07:32.078Z,17.22
2019-04-26T03:10:06.944Z,17.21
2019-04-26T03:12:43.275Z,17.21
2019-04-26T03:15:24.569Z,17.21
2019-04-26T03:18:24.120Z,17.18
2019-04-26T03:21:39.928Z,17.16
2019-04-26T03:24:22.271Z,17.12
2019-04-26T03:27:18.096Z,17.12
2019-04-26T03:30:19.234Z,17.10
2019-04-26T03:33:12.434Z,17.09
2019-04-26T03:36:11.762Z,17.06
2019-04-26T03:39:28.891Z,17.07
2019-04-26T03:42:44.888Z,17.07
2019-04-26T03:45:40.760Z,17.06
2019-04-26T03:48:26.333Z,17.07
2019-04-26T03:51:27.334Z,17.09
2019-04-26T03:54:32.542Z,17.13
2019-04-26T03:57:44.823Z,17.15
2019-04-26T04:00:23.133Z,17.19
2019-04-26T04:03:27.879Z,17.24
2019-04-26T04:06:05.194Z,17.29
2019-04-26T04:08:53.795Z,17.32
2019-04-26T04:11:40.812Z,17.34
2019-04-26T04:14:45.118Z,17.35
2019-04-26T04:17:43.811Z,17.38
2019-04-26T04:20:50.877Z,17.44
2019-04-26T04:23:39.823Z,17.46
2019-04-26T04:26:17.588Z,17.51
2019-04-26T04:29:04.662Z,17.55
2019-04-26T04:31:45.756Z,17.60
2019-04-26T04:34:28.085Z,17.63
2019-04-26T04:37:04.649Z,17.67
2019-04-26T04:40:12.435Z,17.76
2019-04-26T04:42:59.915Z,17.90
2019-04-26T04:45:58.774Z,18.11
2019-04-26T04:49:15.825Z,18.33
2019-04-26T04:52:12.632Z,18.48
2019-04-26T04:55:07.727Z,18.54
2019-04-26T04:57:58.471Z,18.57
2019-04-26T05:00:54.335Z,18.59
2019-04-26T05:03:51.060Z,18.68
2019-04-26T05:06:49.045Z,18.73
2019-04-26T05:09:31.701Z,18.71
2019-04-26T05:12:08.276Z,18.66
2019-04-26T05:15:10.196Z,18.63
2019-04-26T05:17:55.829Z,18.63
2019-04-26T05:21:07.001Z,18.60
2019-04-26T05:24:23.836Z,18.57
2019-04-26T05:27:10.719Z,18.52
2019-04-26T05:30:00.967Z,18.50
2019-04-26T05:32:52.787Z,18.49
2019-04-26T05:35:56.022Z,18.49
2019-04-26T05:39:08.729Z,18.50
2019-04-26T05:42:51.747Z,18.53
2019-04-26T05:46:07.876Z,18.52
2019-04-26T05:48:57.978Z,18.54
2019-04-26T05:52:00.501Z,18.55
2019-04-26T05:55:12.924Z,18.57
2019-04-26T05:58:24.821Z,18.59
2019-04-26T06:01:59.056Z,18.65
2019-04-26T06:04:49.256Z,18.71
2019-04-26T06:08:03.614Z,18.75
2019-04-26T06:10:46.567Z,18.84
2019-04-26T06:13:57.857Z,18.96
2019-04-26T06:16:57.601Z,19.15
2019-04-26T06:19:57.315Z,19.32
2019-04-26T06:22:53.674Z,19.42
2019-04-26T06:26:29.127Z,19.53
2019-04-26T06:29:17.248Z,19.58
2019-04-26T06:32:13.703Z,19.69
2019-04-26T06:35:14.631Z,19.78
2019-04-26T06:38:43.523Z,19.84
2019-04-26T06:42:00.774Z,19.84
2019-04-26T06:45:17.983Z,19.91
2019-04-26T06:48:08.024Z,19.95
2019-04-26T06:51:09.234Z,19.94
2019-04-26T06:54:10.578Z,20.01
2019-04-26T06:57:13.760Z,20.13
2019-04-26T06:59:57.427Z,20.22
2019-04-26T07:03:05.713Z,20.32
2019-04-26T07:05:46.794Z,20.42
2019-04-26T07:08:33.211Z,20.49
2019-04-26T07:11:46.264Z,20.59
2019-04-26T07:15:03.829Z,20.72
2019-04-26T07:17:58.269Z,20.82
2019-04-26T07:20:38.929Z,20.94
2019-04-26T07:23:34.247Z,21.05
2019-04-26T07:26:43.535Z,21.15
2019-04-26T07:29:46.707Z,21.24
2019-04-26T07:32:49.572Z,21.29
2019-04-26T07:35:37.529Z,21.33
2019-04-26T07:38:17.255Z,21.39
2019-04-26T07:41:22.810Z,21.52
2019-04-26T07:44:39.003Z,21.67
2019-04-26T07:47:40.329Z,21.79
2019-04-26T07:50:39.544Z,21.90
2019-04-26T07:54:00.579Z,22.01
2019-04-26T07:56:49.140Z,22.12
2019-04-26T07:59:57.310Z,22.21
2019-04-26T08:02:44.287Z,22.31
2019-04-26T08:05:46.227Z,22.43
2019-04-26T08:08:22.839Z,22.49
2019-04-26T08:11:12.869Z,22.51
2019-04-26T08:13:52.250Z,22.55
2019-04-26T08:16:46.514Z,22.59
2019-04-26T08:19:23.544Z,22.64
2019-04-26T08:22:11.589Z,22.74
2019-04-26T08:24:34.866Z,22.83
2019-04-26T08:27:23.200Z,22.87
2019-04-26T08:29:56.238Z,22.90
2019-04-26T08:32:33.433Z,22.90
2019-04-26T08:35:16.885Z,22.92
2019-04-26T08:37:48.325Z,22.97
2019-04-26T08:40:30.709Z,23.03
2019-04-26T08:43:03.300Z,23.13
2019-04-26T08:45:45.599Z,23.21
2019-04-26T08:48:22.424Z,23.27
2019-04-26T08:50:58.265Z,23.32
2019-04-26T08:53:34.297Z,23.41
2019-04-26T08:56:11.613Z,23.50
2019-04-26T08:58:47.928Z,23.58
2019-04-26T09:01:37.120Z,23.63
2019-04-26T09:04:14.199Z,23.71
2019-04-26T09:06:52.624Z,23.82
2019-04-26T09:09:29.314Z,23.89
2019-04-26T09:12:08.266Z,23.92
2019-04-26T09:14:44.336Z,24.01
2019-04-26T09:17:16.311Z,24.13
2019-04-26T09:19:48.806Z,24.22
2019-04-26T09:22:37.553Z,24.29
2019-04-26T09:25:11.649Z,24.37
2019-04-26T09:27:54.367Z,24.45
2019-04-26T09:30:34.383Z,24.54
2019-04-26T09:33:11.790Z,24.60
2019-04-26T09:35:43.824Z,24.63
2019-04-26T09:38:16.341Z,24.67
2019-04-26T09:40:48.303Z,24.73
2019-04-26T09:43:30.887Z,24.81
2019-04-26T09:46:20.807Z,24.90
2019-04-26T09:48:54.416Z,24.95
2019-04-26T09:51:27.425Z,25.00
2019-04-26T09:53:59.511Z,25.06
2019-04-26T09:56:32.714Z,25.14
2019-04-26T09:59:05.622Z,25.23
2019-04-26T10:01:38.012Z,25.31
2019-04-26T10:04:09.997Z,25.38
2019-04-26T10:06:42.306Z,25.44
2019-04-26T10:09:21.049Z,25.49
2019-04-26T10:11:55.729Z,25.53
2019-04-26T10:14:38.150Z,25.59
2019-04-26T10:17:15.630Z,25.60
2019-04-26T10:19:50.054Z,25.63
2019-04-26T10:22:24.530Z,25.65
2019-04-26T10:24:56.689Z,25.68
2019-04-26T10:27:28.670Z,25.71
2019-04-26T10:30:07.719Z,25.72
2019-04-26T10:32:34.962Z,25.75
2019-04-26T10:35:08.030Z,25.84
2019-04-26T10:37:44.001Z,25.93
2019-04-26T10:40:14.420Z,26.07
2019-04-26T10:42:46.390Z,26.20
2019-04-26T10:45:18.487Z,26.30
2019-04-26T10:47:50.778Z,26.38
2019-04-26T10:50:23.229Z,26.43
2019-04-26T10:53:14.915Z,26.46
2019-04-26T10:55:54.851Z,26.49
2019-04-26T10:58:31.976Z,26.53
2019-04-26T11:01:06.545Z,26.57
2019-04-26T11:03:38.583Z,26.56
2019-04-26T11:06:10.667Z,26.53
2019-04-26T11:08:42.915Z,26.54
2019-04-26T11:11:14.853Z,26.53
2019-04-26T11:13:47.077Z,26.53
2019-04-26T11:16:19.120Z,26.49
2019-04-26T11:18:51.080Z,26.42
2019-04-26T11:21:23.041Z,26.37
2019-04-26T11:23:55.358Z,26.36
2019-04-26T11:26:27.338Z,26.37
2019-04-26T11:28:59.588Z,26.35
2019-04-26T11:31:31.863Z,26.12
2019-04-26T11:34:06.632Z,25.76
2019-04-26T11:36:41.790Z,25.46
2019-04-26T11:39:14.741Z,25.29
2019-04-26T11:41:47.156Z,25.17
2019-04-26T11:44:23.425Z,25.00
2019-04-26T11:46:55.175Z,24.77
2019-04-26T11:49:27.117Z,24.49
2019-04-26T11:52:02.923Z,24.22
2019-04-26T11:54:34.920Z,23.96
2019-04-26T11:57:08.281Z,23.74
2019-04-26T11:59:40.539Z,23.63
2019-04-26T12:02:16.082Z,23.46
2019-04-26T12:04:49.727Z,23.24
2019-04-26T12:07:30.016Z,23.14
2019-04-26T12:10:09.943Z,23.01
2019-04-26T12:12:43.191Z,22.89
2019-04-26T12:15:14.283Z,22.85
2019-04-26T12:17:58.044Z,22.83
2019-04-26T12:20:37.343Z,22.73
2019-04-26T12:23:13.640Z,22.59
2019-04-26T12:25:47.927Z,22.44
2019-04-26T12:28:17.318Z,22.32
2019-04-26T12:30:49.703Z,22.29
2019-04-26T12:33:21.641Z,22.21
2019-04-26T12:35:57.186Z,21.79
2019-04-26T12:38:28.587Z,21.39
2019-04-26T12:41:01.911Z,21.28
2019-04-26T12:43:34.856Z,21.28
2019-04-26T12:46:22.600Z,21.16
2019-04-26T12:48:55.344Z,21.00
2019-04-26T12:51:42.849Z,21.02
2019-04-26T12:54:16.294Z,21.14
2019-04-26T12:56:48.266Z,21.29
2019-04-26T12:59:22.511Z,21.39
2019-04-26T13:02:04.871Z,21.57
2019-04-26T13:04:35.850Z,21.76
2019-04-26T13:07:06.917Z,21.86
2019-04-26T13:09:38.468Z,21.91
2019-04-26T13:12:12.136Z,21.88
2019-04-26T13:15:00.949Z,21.87
2019-04-26T13:17:35.792Z,21.95
2019-04-26T13:20:08.540Z,21.74
2019-04-26T13:22:46.128Z,22.20
2019-04-26T13:25:20.289Z,22.29
2019-04-26T13:27:48.141Z,22.31
2019-04-26T13:30:40.095Z,22.20
2019-04-26T13:33:11.345Z,22.13
2019-04-26T13:35:46.682Z,22.11
2019-04-26T13:38:17.182Z,21.99
2019-04-26T13:40:49.712Z,21.95
2019-04-26T13:43:22.700Z,22.00
2019-04-26T13:46:02.957Z,22.13
2019-04-26T13:49:04.042Z,22.14
2019-04-26T13:51:38.311Z,22.09
2019-04-26T13:54:10.287Z,22.10
2019-04-26T13:56:42.551Z,22.12
2019-04-26T13:59:14.884Z,22.10
2019-04-26T14:01:47.290Z,22.12
2019-04-26T14:04:19.585Z,22.20
2019-04-26T14:06:52.706Z,22.20
2019-04-26T14:09:25.126Z,22.05
2019-04-26T14:11:58.074Z,21.94
2019-04-26T14:14:34.235Z,21.97
2019-04-26T14:17:04.351Z,22.02
2019-04-26T14:19:53.750Z,22.03
2019-04-26T14:22:27.350Z,21.96
2019-04-26T14:25:04.156Z,21.87
2019-04-26T14:27:38.056Z,21.82
2019-04-26T14:30:10.795Z,21.74
2019-04-26T14:32:43.116Z,21.70
2019-04-26T14:35:17.134Z,21.61
2019-04-26T14:37:49.925Z,21.57
2019-04-26T14:40:22.165Z,21.46
2019-04-26T14:43:05.999Z,21.35
2019-04-26T14:45:28.169Z,21.32
2019-04-26T14:48:04.007Z,21.32
2019-04-26T14:50:34.032Z,21.33
2019-04-26T14:53:06.312Z,21.38
2019-04-26T14:55:38.254Z,21.43
2019-04-26T14:58:10.281Z,21.47
2019-04-26T15:00:45.697Z,21.50
2019-04-26T15:03:37.217Z,21.52
2019-04-26T15:06:16.793Z,21.36
2019-04-26T15:08:50.653Z,21.02
2019-04-26T15:11:23.043Z,20.78
2019-04-26T15:13:55.143Z,20.64
2019-04-26T15:16:27.363Z,20.32
2019-04-26T15:19:00.093Z,20.09
2019-04-26T15:21:34.364Z,20.05
2019-04-26T15:24:06.131Z,20.08
2019-04-26T15:26:38.100Z,20.03
2019-04-26T15:29:12.582Z,19.92
2019-04-26T15:31:44.139Z,19.84
2019-04-26T15:34:19.269Z,19.78
2019-04-26T15:36:49.773Z,19.66
2019-04-26T15:39:26.195Z,19.66
2019-04-26T15:42:17.703Z,19.69
2019-04-26T15:45:03.496Z,19.80
2019-04-26T15:47:43.455Z,19.91
2019-04-26T15:53:06.723Z,19.70
2019-04-26T15:55:40.265Z,19.72
2019-04-26T15:58:12.852Z,19.78
2019-04-26T16:00:44.869Z,19.85
2019-04-26T16:03:17.147Z,19.93
2019-04-26T16:05:49.429Z,19.97
2019-04-26T16:08:22.830Z,19.99
2019-04-26T16:11:12.928Z,19.91
2019-04-26T16:13:51.392Z,19.78
2019-04-26T16:16:20.690Z,19.66
2019-04-26T16:18:55.457Z,19.57
2019-04-26T16:21:25.898Z,19.48
2019-04-26T16:23:58.589Z,19.42
2019-04-26T16:26:30.567Z,19.36
2019-04-26T16:29:04.540Z,19.22
2019-04-26T16:31:56.491Z,19.15
2019-04-26T16:34:41.478Z,19.02
2019-04-26T16:37:14.957Z,18.99
2019-04-26T16:39:48.718Z,19.00
2019-04-26T16:42:20.925Z,19.01
2019-04-26T16:44:55.136Z,18.94
2019-04-26T16:47:26.542Z,18.89
2019-04-26T16:50:01.256Z,18.89
2019-04-26T16:52:33.683Z,18.89
2019-04-26T16:55:17.794Z,18.83
2019-04-26T16:57:53.289Z,18.75
2019-04-26T17:00:16.670Z,18.62
2019-04-26T17:02:49.529Z,18.59
2019-04-26T17:05:44.435Z,18.58
2019-04-26T17:07:58.942Z,18.60
2019-04-26T17:10:28.787Z,18.59
2019-04-26T17:13:03.041Z,18.47
2019-04-26T17:15:34.740Z,18.41
2019-04-26T17:18:06.683Z,18.44
2019-04-26T17:20:40.435Z,18.47
2019-04-26T17:23:14.024Z,18.47
2019-04-26T17:25:50.286Z,18.37
2019-04-26T17:28:26.229Z,18.26
2019-04-26T17:30:56.191Z,18.27
2019-04-26T17:33:29.159Z,18.25
2019-04-26T17:36:01.388Z,18.26
2019-04-26T17:38:35.215Z,18.24
2019-04-26T17:41:10.994Z,17.99
2019-04-26T17:43:46.778Z,18.24
2019-04-26T17:46:17.743Z,18.24
2019-04-26T17:48:49.342Z,18.24
2019-04-26T17:51:23.222Z,18.23
2019-04-26T17:54:18.876Z,18.19
2019-04-26T17:56:31.451Z,18.12
2019-04-26T17:59:08.993Z,18.03
2019-04-26T18:01:45.198Z,17.95
2019-04-26T18:04:11.394Z,17.91
2019-04-26T18:06:45.452Z,17.89
2019-04-26T18:09:38.203Z,17.81
2019-04-26T18:11:51.068Z,17.80
2019-04-26T18:14:29.944Z,17.79
2019-04-26T18:17:01.496Z,17.77
2019-04-26T18:19:50.104Z,17.72
2019-04-26T18:22:28.400Z,17.67
2019-04-26T18:25:04.267Z,17.51
2019-04-26T18:27:38.390Z,17.50
2019-04-26T18:30:26.804Z,17.53
2019-04-26T18:33:17.542Z,17.41
2019-04-26T18:35:55.694Z,17.33
2019-04-26T18:38:24.774Z,17.33
2019-04-26T18:41:00.924Z,17.35
2019-04-26T18:43:30.605Z,17.38
2019-04-26T18:46:06.566Z,17.36
2019-04-26T18:48:40.635Z,17.26
2019-04-26T18:51:12.295Z,17.27
2019-04-26T18:53:46.249Z,17.25
2019-04-26T18:56:18.220Z,17.14
2019-04-26T18:58:51.637Z,17.08
2019-04-26T19:01:23.830Z,17.21
2019-04-26T19:03:55.860Z,17.27
2019-04-26T19:06:31.806Z,17.21
2019-04-26T19:09:05.725Z,17.18
2019-04-26T19:11:37.160Z,17.17
2019-04-26T19:14:15.042Z,17.14
2019-04-26T19:16:56.862Z,17.12
2019-04-26T19:19:39.606Z,17.16
2019-04-26T19:22:15.880Z,17.15
2019-04-26T19:24:45.240Z,17.13
2019-04-26T19:27:22.405Z,17.11
2019-04-26T19:29:51.779Z,17.10
2019-04-26T19:32:23.944Z,17.07
2019-04-26T19:34:56.097Z,16.94
2019-04-26T19:37:30.360Z,16.87
2019-04-26T19:40:04.558Z,16.86
2019-04-26T19:42:35.333Z,16.85
2019-04-26T19:45:16.696Z,16.87
2019-04-26T19:47:52.035Z,16.87
2019-04-26T19:50:48.582Z,16.84
2019-04-26T19:53:24.701Z,16.76
2019-04-26T19:56:17.544Z,16.77
2019-04-26T19:58:50.698Z,16.77
2019-04-26T20:01:24.814Z,16.76
2019-04-26T20:03:56.846Z,16.80
2019-04-26T20:06:28.792Z,16.79
2019-04-26T20:09:01.953Z,16.73
2019-04-26T20:11:34.113Z,16.74
2019-04-26T20:14:06.074Z,16.71
2019-04-26T20:16:40.754Z,16.68
2019-04-26T20:19:15.335Z,16.64
2019-04-26T20:21:49.135Z,16.59
2019-04-26T20:24:19.570Z,16.56
2019-04-26T20:26:52.504Z,16.57
2019-04-26T20:29:24.461Z,16.51
2019-04-26T20:32:09.977Z,16.52
2019-04-26T20:34:45.254Z,16.59
2019-04-26T20:37:22.856Z,16.64
2019-04-26T20:39:55.857Z,16.65
2019-04-26T20:42:25.117Z,16.59
2019-04-26T20:44:57.397Z,16.55
2019-04-26T20:47:29.377Z,16.54
2019-04-26T20:50:03.059Z,16.53
2019-04-26T20:52:35.196Z,16.53
2019-04-26T20:55:08.230Z,16.55
2019-04-26T20:57:42.721Z,16.57
2019-04-26T21:00:14.481Z,16.60
2019-04-26T21:02:46.488Z,16.60
2019-04-26T21:05:18.440Z,16.62
2019-04-26T21:07:51.082Z,16.69
2019-04-26T21:10:25.642Z,16.72
2019-04-26T21:12:57.109Z,16.72
2019-04-26T21:15:29.061Z,16.71
2019-04-26T21:18:04.054Z,16.69
2019-04-26T21:20:36.495Z,16.67
2019-04-26T21:23:08.789Z,16.64
2019-04-26T21:25:45.333Z,16.64
2019-04-26T21:28:18.926Z,16.64
2019-04-26T21:30:52.826Z,16.51
2019-04-26T21:33:35.886Z,16.49
2019-04-26T21:36:07.534Z,16.54
2019-04-26T21:38:50.131Z,16.56
2019-04-26T21:41:24.024Z,16.60
2019-04-26T21:43:56.062Z,16.59
2019-04-26T21:46:29.102Z,16.51
2019-04-26T21:49:01.017Z,16.46
2019-04-26T21:51:34.017Z,16.43
2019-04-26T21:54:06.233Z,16.50
2019-04-26T21:56:38.170Z,16.54
2019-04-26T21:59:10.135Z,16.62
2019-04-26T22:01:43.517Z,16.63
2019-04-26T22:04:15.704Z,16.58
2019-04-26T22:06:47.957Z,16.51
2019-04-26T22:09:36.767Z,16.51
2019-04-26T22:12:09.100Z,16.50
2019-04-26T22:14:43.998Z,16.49
2019-04-26T22:17:30.125Z,16.46
2019-04-26T22:20:16.260Z,16.48
2019-04-26T22:22:52.917Z,16.47
2019-04-26T22:25:26.753Z,16.48
2019-04-26T22:28:00.566Z,16.47
2019-04-26T22:30:33.146Z,16.50
2019-04-26T22:33:05.689Z,16.49
2019-04-26T22:35:38.241Z,16.48
2019-04-26T22:38:10.438Z,16.46
2019-04-26T22:40:43.714Z,16.39
2019-04-26T22:43:29.926Z,16.31
2019-04-26T22:46:04.977Z,16.23
2019-04-26T22:48:39.077Z,16.19
2019-04-26T22:51:11.334Z,16.17
2019-04-26T22:53:43.415Z,16.17
2019-04-26T22:56:15.863Z,16.15
2019-04-26T22:58:48.135Z,16.15
2019-04-26T23:01:20.098Z,16.18
2019-04-26T23:03:53.250Z,16.18
2019-04-26T23:06:25.864Z,16.14
2019-04-26T23:08:57.831Z,16.14
2019-04-26T23:11:30.411Z,16.10
2019-04-26T23:14:18.847Z,16.10
2019-04-26T23:17:04.193Z,16.06
2019-04-26T23:19:35.797Z,15.97
2019-04-26T23:22:09.710Z,15.91
2019-04-26T23:24:42.776Z,15.85
2019-04-26T23:27:20.604Z,15.84
2019-04-26T23:29:49.842Z,15.87
2019-04-26T23:32:23.456Z,15.94
2019-04-26T23:34:58.310Z,15.90
2019-04-26T23:37:29.573Z,15.85
2019-04-26T23:40:01.538Z,15.86
2019-04-26T23:42:33.817Z,15.94
2019-04-26T23:45:10.687Z,16.00
2019-04-26T23:47:41.327Z,16.03
2019-04-26T23:50:14.156Z,16.04
2019-04-26T23:52:49.278Z,16.03
2019-04-26T23:55:19.876Z,16.01
2019-04-26T23:57:53.351Z,15.99
